logo
Rechercher aéroport 
image banner adimage banner adimage banner ad
image banner ad

60VT - Northwestern Medical Center

Situé à St Albans City, United States

ICAO - 60VT, IATA -

Données fournies par Airmate  

Information générale

Coordonnées: N44°47'33" W73°4'38"
Élévation : 497 feet MSL.
 
Voir autres Aéroports à Vermont

Données opérationnelles

Special qualification required
Heure actuelle UTC:
Heure actuelle locale:
Météo à : KFSO - Franklin County State ( 16 km )
METAR: KFSO 220855Z AUTO 20005KT 10SM SCT100 SCT120 19/19 A2984 RMK AO2 T01920186
Voir NOTAMs / SUP AIP / TFR affectant cet aéroport [VIEW]
Fréquences de communication: [VIEW]

Pistes:

Coordonnées de l'aéroport

Adresse: St Albans City United States

Vue satellite de 60VT